Airfield :
LOGIN :

Register | Disclaimer

   EN    FR    IT 

 










Legend :    VFR   Marginal VFR   IFR   Intensive IFR   Very Intensive IFR
Visi :
Ceiling :
>= 8 km
>= 3000ft
5 to 8 km
1000 to 3000 ft
1500m to 5 km
500 to 1000 ft
800 to 1500m
200 to 500 ft
< 800m
< 200 ft
Symbols :   Thunderstorms  Fog  Heavy snow  Heavy precipitations  Wind > 20 kt
SIGMETs :     Misc.  Thunderstorms  Icing  Turbulence  Mountain Waves  Volcanic Ashes






- Airport Elevation : 39 ft
- IATA code : ANR


EBAW - Anvers / Antwerpen Deurne

CURRENT METAR :
  • 261350Z 13004KT 9999 VCTS FEW020CB SCT035 20/13 Q1012 TEMPO 23015G25KT TSRA

EXPIRED METARs :
  • 261320Z 13007KT 9999 FEW020TCU 21/13 Q1012 TEMPO 23015KT SHRA
  • 261250Z 14007KT 9999 FEW020 20/14 Q1013 TEMPO 23015KT SHRA
  • 261220Z 11007KT 080V140 9999 FEW020 19/15 Q1013 TEMPO 23015KT
  • 261150Z 09005KT CAVOK 18/15 Q1013 NOSIG
  • 261120Z 09006KT CAVOK 18/15 Q1014 NOSIG
  • 261050Z 08004KT 9999 FEW040 17/14 Q1014 NOSIG
  • 261020Z 08003KT 050V130 9999 FEW040 16/14 Q1014 NOSIG
  • 260950Z 08004KT 9999 FEW040 15/13 Q1014 RERA NOSIG
  • 260920Z 07006KT 050V120 8000 RA FEW015 15/13 Q1014 NOSIG

TAF TAF EBAW
Valid from the 26 at 12:00 until the 26 at 21:00 UTC


261120Z 2612/2621 12006KT 9999 FEW030
TEMPO 2612/2617 4500 SHRA SCT040CB
BECMG 2613/2615 27013KT
PROB40
TEMPO 2613/2617 23015G25KT 2500 TSRA SCT015 BKN030CB
BECMG 2617/2619 20005KT



MET'MAP, your aeronautical weather chart ! - Copyright ORBIFLY December 2007 - Disclaimer

ORBIFLY MET'MAP TEAM :

Programming & Development : Alexandra Zaïnal
Original concept : Baudouin d'Aumeries
Technical & hardware support : Manuel Goepfert
Assistance : Marc-Olivier Méhu




SOURCES & CREDITS :

   NOAA